sensor_id;sensor_type;location;lat;lon;timestamp;pressure;altitude;pressure_sealevel;temperature;humidity
7966;BME280;4028;43.272;26.932;2023-04-28T00:01:45;99366.56;;;10.00;100.00
7966;BME280;4028;43.272;26.932;2023-04-28T00:04:11;99344.25;;;9.83;100.00
7966;BME280;4028;43.272;26.932;2023-04-28T00:06:36;99357.03;;;9.87;100.00
7966;BME280;4028;43.272;26.932;2023-04-28T00:09:02;99363.47;;;9.95;100.00
7966;BME280;4028;43.272;26.932;2023-04-28T00:11:28;99364.91;;;9.99;100.00
7966;BME280;4028;43.272;26.932;2023-04-28T00:13:53;99348.06;;;10.00;100.00
7966;BME280;4028;43.272;26.932;2023-04-28T00:16:18;99365.03;;;10.07;100.00
7966;BME280;4028;43.272;26.932;2023-04-28T00:18:44;99370.19;;;9.99;100.00
7966;BME280;4028;43.272;26.932;2023-04-28T00:21:09;99365.41;;;9.93;98.39
7966;BME280;4028;43.272;26.932;2023-04-28T00:23:35;99361.53;;;9.97;100.00
7966;BME280;4028;43.272;26.932;2023-04-28T00:26:00;99348.41;;;9.85;97.38
7966;BME280;4028;43.272;26.932;2023-04-28T00:28:26;99373.75;;;9.98;98.43
7966;BME280;4028;43.272;26.932;2023-04-28T00:30:51;99356.78;;;9.90;97.30
7966;BME280;4028;43.272;26.932;2023-04-28T00:33:17;99370.69;;;9.93;94.25
7966;BME280;4028;43.272;26.932;2023-04-28T00:35:42;99371.56;;;9.93;91.99
7966;BME280;4028;43.272;26.932;2023-04-28T00:38:08;99382.00;;;9.95;90.65
7966;BME280;4028;43.272;26.932;2023-04-28T00:40:34;99379.06;;;9.88;94.19
7966;BME280;4028;43.272;26.932;2023-04-28T00:43:00;99369.75;;;9.94;97.55
7966;BME280;4028;43.272;26.932;2023-04-28T00:45:25;99372.66;;;9.90;96.32
7966;BME280;4028;43.272;26.932;2023-04-28T00:47:51;99379.75;;;9.90;98.46
7966;BME280;4028;43.272;26.932;2023-04-28T00:50:17;99382.38;;;9.90;95.64
7966;BME280;4028;43.272;26.932;2023-04-28T00:52:42;99383.63;;;9.86;96.24
7966;BME280;4028;43.272;26.932;2023-04-28T00:55:08;99369.72;;;9.84;96.86
7966;BME280;4028;43.272;26.932;2023-04-28T00:57:34;99390.88;;;9.94;97.82
7966;BME280;4028;43.272;26.932;2023-04-28T01:00:01;99386.03;;;9.99;93.94
7966;BME280;4028;43.272;26.932;2023-04-28T01:02:27;99381.44;;;10.01;87.33
7966;BME280;4028;43.272;26.932;2023-04-28T01:04:55;99393.44;;;10.05;87.59
7966;BME280;4028;43.272;26.932;2023-04-28T01:07:21;99385.09;;;10.09;85.42
7966;BME280;4028;43.272;26.932;2023-04-28T01:09:47;99382.72;;;10.06;84.82
7966;BME280;4028;43.272;26.932;2023-04-28T01:12:12;99389.22;;;10.02;84.28
7966;BME280;4028;43.272;26.932;2023-04-28T01:14:38;99391.84;;;9.93;84.67
7966;BME280;4028;43.272;26.932;2023-04-28T01:17:04;99399.06;;;9.90;87.60
7966;BME280;4028;43.272;26.932;2023-04-28T01:19:29;99378.19;;;9.78;89.67
7966;BME280;4028;43.272;26.932;2023-04-28T01:21:55;99393.25;;;9.97;89.02
7966;BME280;4028;43.272;26.932;2023-04-28T01:24:21;99398.00;;;9.93;88.06
7966;BME280;4028;43.272;26.932;2023-04-28T01:26:46;99390.47;;;9.88;87.39
7966;BME280;4028;43.272;26.932;2023-04-28T01:29:12;99382.59;;;9.77;92.47
7966;BME280;4028;43.272;26.932;2023-04-28T01:31:37;99395.03;;;9.86;95.48
7966;BME280;4028;43.272;26.932;2023-04-28T01:34:03;99384.00;;;9.81;94.96
7966;BME280;4028;43.272;26.932;2023-04-28T01:36:28;99385.97;;;9.79;93.34
7966;BME280;4028;43.272;26.932;2023-04-28T01:38:54;99387.63;;;9.80;87.78
7966;BME280;4028;43.272;26.932;2023-04-28T01:41:19;99391.78;;;9.73;87.75
7966;BME280;4028;43.272;26.932;2023-04-28T01:43:45;99392.47;;;9.75;85.86
7966;BME280;4028;43.272;26.932;2023-04-28T01:46:10;99395.47;;;9.92;81.86
7966;BME280;4028;43.272;26.932;2023-04-28T01:48:36;99389.88;;;9.85;80.59
7966;BME280;4028;43.272;26.932;2023-04-28T01:51:02;99399.91;;;9.91;78.37
7966;BME280;4028;43.272;26.932;2023-04-28T01:53:27;99399.31;;;9.87;79.24
7966;BME280;4028;43.272;26.932;2023-04-28T01:55:54;99391.25;;;9.79;81.37
7966;BME280;4028;43.272;26.932;2023-04-28T01:58:20;99384.00;;;9.81;81.45
7966;BME280;4028;43.272;26.932;2023-04-28T02:00:46;99387.63;;;9.80;81.16
7966;BME280;4028;43.272;26.932;2023-04-28T02:03:12;99383.47;;;9.78;82.02
7966;BME280;4028;43.272;26.932;2023-04-28T02:05:37;99387.34;;;9.74;81.87
7966;BME280;4028;43.272;26.932;2023-04-28T02:08:03;99388.41;;;9.71;80.13
7966;BME280;4028;43.272;26.932;2023-04-28T02:10:28;99394.53;;;9.72;80.65
7966;BME280;4028;43.272;26.932;2023-04-28T02:12:53;99384.44;;;9.56;83.24
7966;BME280;4028;43.272;26.932;2023-04-28T02:15:19;99401.28;;;9.85;80.11
7966;BME280;4028;43.272;26.932;2023-04-28T02:17:44;99398.19;;;9.80;77.70
7966;BME280;4028;43.272;26.932;2023-04-28T02:20:10;99389.25;;;9.72;79.36
7966;BME280;4028;43.272;26.932;2023-04-28T02:22:36;99397.31;;;9.70;81.60
7966;BME280;4028;43.272;26.932;2023-04-28T02:25:01;99374.28;;;9.51;82.00
7966;BME280;4028;43.272;26.932;2023-04-28T02:27:27;99388.66;;;9.58;83.53
7966;BME280;4028;43.272;26.932;2023-04-28T02:29:53;99393.50;;;9.53;83.55
7966;BME280;4028;43.272;26.932;2023-04-28T02:32:18;99382.19;;;9.51;84.17
7966;BME280;4028;43.272;26.932;2023-04-28T02:34:43;99390.47;;;9.58;80.89
7966;BME280;4028;43.272;26.932;2023-04-28T02:37:09;99390.47;;;9.58;77.63
7966;BME280;4028;43.272;26.932;2023-04-28T02:39:34;99382.16;;;9.62;77.87
7966;BME280;4028;43.272;26.932;2023-04-28T02:42:00;99347.13;;;9.40;76.09
7966;BME280;4028;43.272;26.932;2023-04-28T02:44:27;99398.44;;;9.68;74.11
7966;BME280;4028;43.272;26.932;2023-04-28T02:46:52;99400.66;;;9.72;73.48
7966;BME280;4028;43.272;26.932;2023-04-28T02:49:17;99393.09;;;9.58;74.55
7966;BME280;4028;43.272;26.932;2023-04-28T02:51:44;99401.41;;;9.53;73.47
7966;BME280;4028;43.272;26.932;2023-04-28T02:54:10;99413.59;;;9.45;74.20
7966;BME280;4028;43.272;26.932;2023-04-28T02:56:35;99404.97;;;9.43;72.56
7966;BME280;4028;43.272;26.932;2023-04-28T02:59:01;99414.09;;;9.59;70.00
7966;BME280;4028;43.272;26.932;2023-04-28T03:01:26;99407.97;;;9.59;67.76
7966;BME280;4028;43.272;26.932;2023-04-28T03:03:52;99412.81;;;9.54;68.94
7966;BME280;4028;43.272;26.932;2023-04-28T03:06:17;99414.63;;;9.53;70.22
7966;BME280;4028;43.272;26.932;2023-04-28T03:08:43;99408.94;;;9.58;69.42
7966;BME280;4028;43.272;26.932;2023-04-28T03:11:08;99413.34;;;9.48;66.63
7966;BME280;4028;43.272;26.932;2023-04-28T03:13:35;99426.34;;;9.40;67.01
7966;BME280;4028;43.272;26.932;2023-04-28T03:16:00;99415.66;;;9.41;67.00
7966;BME280;4028;43.272;26.932;2023-04-28T03:18:26;99424.69;;;9.38;66.29
7966;BME280;4028;43.272;26.932;2023-04-28T03:20:52;99421.00;;;9.30;66.32
7966;BME280;4028;43.272;26.932;2023-04-28T03:23:17;99426.28;;;9.30;64.69
7966;BME280;4028;43.272;26.932;2023-04-28T03:25:42;99441.03;;;9.32;64.83
7966;BME280;4028;43.272;26.932;2023-04-28T03:28:08;99437.69;;;9.30;65.85
7966;BME280;4028;43.272;26.932;2023-04-28T03:30:35;99435.31;;;9.27;67.05
7966;BME280;4028;43.272;26.932;2023-04-28T03:33:00;99436.47;;;9.34;65.01
7966;BME280;4028;43.272;26.932;2023-04-28T03:35:26;99438.84;;;9.37;63.16
7966;BME280;4028;43.272;26.932;2023-04-28T03:37:51;99443.72;;;9.21;64.66
7966;BME280;4028;43.272;26.932;2023-04-28T03:40:17;99447.09;;;9.23;62.79
7966;BME280;4028;43.272;26.932;2023-04-28T03:42:42;99441.38;;;9.39;61.06
7966;BME280;4028;43.272;26.932;2023-04-28T03:45:08;99449.66;;;9.34;61.34
7966;BME280;4028;43.272;26.932;2023-04-28T03:47:34;99452.13;;;9.47;61.07
7966;BME280;4028;43.272;26.932;2023-04-28T03:49:59;99440.50;;;9.59;60.80
7966;BME280;4028;43.272;26.932;2023-04-28T03:52:25;99427.94;;;9.52;59.44
7966;BME280;4028;43.272;26.932;2023-04-28T03:54:51;99462.38;;;9.92;60.24
7966;BME280;4028;43.272;26.932;2023-04-28T03:57:17;99458.00;;;10.12;57.84
7966;BME280;4028;43.272;26.932;2023-04-28T03:59:42;99449.97;;;10.44;57.66
7966;BME280;4028;43.272;26.932;2023-04-28T04:02:08;99444.66;;;10.54;57.26
7966;BME280;4028;43.272;26.932;2023-04-28T04:04:33;99456.53;;;10.69;54.63
7966;BME280;4028;43.272;26.932;2023-04-28T04:06:59;99465.63;;;10.96;53.73
7966;BME280;4028;43.272;26.932;2023-04-28T04:09:25;99473.56;;;11.44;53.09
7966;BME280;4028;43.272;26.932;2023-04-28T04:11:50;99473.41;;;12.49;50.25
7966;BME280;4028;43.272;26.932;2023-04-28T04:14:16;99476.69;;;13.68;46.53
7966;BME280;4028;43.272;26.932;2023-04-28T04:16:41;99465.63;;;14.91;43.47
7966;BME280;4028;43.272;26.932;2023-04-28T04:19:07;99476.47;;;15.96;40.31
7966;BME280;4028;43.272;26.932;2023-04-28T04:21:32;99462.41;;;16.88;38.53
7966;BME280;4028;43.272;26.932;2023-04-28T04:23:58;99476.06;;;17.62;36.82
7966;BME280;4028;43.272;26.932;2023-04-28T04:26:23;99485.81;;;17.55;35.79
7966;BME280;4028;43.272;26.932;2023-04-28T04:28:49;99481.13;;;17.57;35.92
7966;BME280;4028;43.272;26.932;2023-04-28T04:31:14;99476.84;;;16.79;36.32
7966;BME280;4028;43.272;26.932;2023-04-28T04:33:40;99484.28;;;16.05;37.16
7966;BME280;4028;43.272;26.932;2023-04-28T04:36:06;99496.78;;;14.91;38.00
7966;BME280;4028;43.272;26.932;2023-04-28T04:38:32;99502.50;;;14.01;39.56
7966;BME280;4028;43.272;26.932;2023-04-28T04:40:57;99496.53;;;13.20;41.05
7966;BME280;4028;43.272;26.932;2023-04-28T04:43:22;99500.38;;;12.44;42.84
7966;BME280;4028;43.272;26.932;2023-04-28T04:45:48;99471.53;;;11.94;43.41
7966;BME280;4028;43.272;26.932;2023-04-28T04:48:14;99509.34;;;11.96;43.68
7966;BME280;4028;43.272;26.932;2023-04-28T04:50:40;99505.34;;;11.63;44.12
7966;BME280;4028;43.272;26.932;2023-04-28T04:53:05;99516.25;;;11.31;45.46
7966;BME280;4028;43.272;26.932;2023-04-28T04:55:31;99512.47;;;11.24;45.14
7966;BME280;4028;43.272;26.932;2023-04-28T04:57:56;99489.34;;;11.16;45.56
7966;BME280;4028;43.272;26.932;2023-04-28T05:00:21;99517.19;;;11.30;45.98
7966;BME280;4028;43.272;26.932;2023-04-28T05:02:47;99508.41;;;11.20;45.83
7966;BME280;4028;43.272;26.932;2023-04-28T05:05:12;99524.19;;;11.31;47.56
7966;BME280;4028;43.272;26.932;2023-04-28T05:07:38;99517.78;;;11.34;46.68
7966;BME280;4028;43.272;26.932;2023-04-28T05:10:04;99504.53;;;11.24;48.34
7966;BME280;4028;43.272;26.932;2023-04-28T05:12:31;99514.00;;;11.46;48.07
7966;BME280;4028;43.272;26.932;2023-04-28T05:14:56;99520.72;;;11.21;47.17
7966;BME280;4028;43.272;26.932;2023-04-28T05:17:22;99521.41;;;11.23;47.80
7966;BME280;4028;43.272;26.932;2023-04-28T05:19:47;99517.19;;;11.30;48.01
7966;BME280;4028;43.272;26.932;2023-04-28T05:22:13;99522.78;;;11.27;48.57
7966;BME280;4028;43.272;26.932;2023-04-28T05:24:38;99521.53;;;11.31;48.51
7966;BME280;4028;43.272;26.932;2023-04-28T05:27:04;99517.47;;;11.56;49.51
7966;BME280;4028;43.272;26.932;2023-04-28T05:29:29;99524.16;;;11.70;47.89
7966;BME280;4028;43.272;26.932;2023-04-28T05:31:55;99517.28;;;11.77;47.57
7966;BME280;4028;43.272;26.932;2023-04-28T05:34:20;99515.09;;;11.73;47.22
7966;BME280;4028;43.272;26.932;2023-04-28T05:36:46;99541.59;;;11.82;45.30
7966;BME280;4028;43.272;26.932;2023-04-28T05:39:11;99527.78;;;11.79;45.46
7966;BME280;4028;43.272;26.932;2023-04-28T05:41:37;99527.50;;;11.82;45.90
7966;BME280;4028;43.272;26.932;2023-04-28T05:44:02;99540.66;;;11.83;45.10
7966;BME280;4028;43.272;26.932;2023-04-28T05:46:28;99534.03;;;11.97;44.96
7966;BME280;4028;43.272;26.932;2023-04-28T05:48:53;99538.66;;;11.95;44.41
7966;BME280;4028;43.272;26.932;2023-04-28T05:51:19;99540.31;;;12.06;44.90
7966;BME280;4028;43.272;26.932;2023-04-28T05:53:46;99540.75;;;12.38;44.26
7966;BME280;4028;43.272;26.932;2023-04-28T05:56:16;99542.97;;;12.43;44.62
7966;BME280;4028;43.272;26.932;2023-04-28T05:58:41;99535.72;;;12.45;45.01
7966;BME280;4028;43.272;26.932;2023-04-28T06:01:11;99544.38;;;12.74;44.49
7966;BME280;4028;43.272;26.932;2023-04-28T06:03:37;99550.56;;;12.93;43.93
7966;BME280;4028;43.272;26.932;2023-04-28T06:06:05;99544.50;;;12.73;43.85
7966;BME280;4028;43.272;26.932;2023-04-28T06:08:30;99546.13;;;12.84;44.00
7966;BME280;4028;43.272;26.932;2023-04-28T06:10:56;99547.84;;;13.20;42.45
7966;BME280;4028;43.272;26.932;2023-04-28T06:13:21;99549.66;;;13.91;41.01
7966;BME280;4028;43.272;26.932;2023-04-28T06:15:47;99510.38;;;13.85;40.54
7966;BME280;4028;43.272;26.932;2023-04-28T06:18:12;99554.50;;;13.96;40.43
7966;BME280;4028;43.272;26.932;2023-04-28T06:20:40;99550.06;;;13.78;41.27
7966;BME280;4028;43.272;26.932;2023-04-28T06:23:05;99559.91;;;14.04;40.20
7966;BME280;4028;43.272;26.932;2023-04-28T06:25:31;99547.81;;;14.10;39.66
7966;BME280;4028;43.272;26.932;2023-04-28T06:27:56;99547.53;;;13.95;39.89
7966;BME280;4028;43.272;26.932;2023-04-28T06:30:22;99540.53;;;13.68;39.13
7966;BME280;4028;43.272;26.932;2023-04-28T06:32:48;99541.66;;;13.65;39.47
7966;BME280;4028;43.272;26.932;2023-04-28T06:35:15;99547.22;;;14.50;38.74
7966;BME280;4028;43.272;26.932;2023-04-28T06:37:40;99531.44;;;14.56;36.95
7966;BME280;4028;43.272;26.932;2023-04-28T06:40:07;99548.31;;;15.40;37.04
7966;BME280;4028;43.272;26.932;2023-04-28T06:42:33;99544.72;;;15.82;37.25
7966;BME280;4028;43.272;26.932;2023-04-28T06:44:58;99555.63;;;16.44;34.62
7966;BME280;4028;43.272;26.932;2023-04-28T06:47:24;99547.88;;;16.57;34.87
7966;BME280;4028;43.272;26.932;2023-04-28T06:49:49;99542.13;;;16.85;34.48
7966;BME280;4028;43.272;26.932;2023-04-28T06:52:15;99547.22;;;15.83;35.21
7966;BME280;4028;43.272;26.932;2023-04-28T06:54:41;99542.34;;;16.03;35.75
7966;BME280;4028;43.272;26.932;2023-04-28T06:57:06;99556.31;;;16.22;35.55
7966;BME280;4028;43.272;26.932;2023-04-28T06:59:32;99546.28;;;16.87;35.32
7966;BME280;4028;43.272;26.932;2023-04-28T07:01:58;99552.00;;;17.38;34.60
7966;BME280;4028;43.272;26.932;2023-04-28T07:04:23;99543.88;;;17.32;33.16
7966;BME280;4028;43.272;26.932;2023-04-28T07:06:49;99548.88;;;17.96;33.32
7966;BME280;4028;43.272;26.932;2023-04-28T07:09:15;99547.78;;;17.90;31.98
7966;BME280;4028;43.272;26.932;2023-04-28T07:11:42;99557.50;;;18.06;31.81
7966;BME280;4028;43.272;26.932;2023-04-28T07:14:07;99565.00;;;18.10;30.78
7966;BME280;4028;43.272;26.932;2023-04-28T07:16:33;99555.66;;;17.46;31.90
7966;BME280;4028;43.272;26.932;2023-04-28T07:18:58;99545.97;;;17.13;32.45
7966;BME280;4028;43.272;26.932;2023-04-28T07:21:24;99544.66;;;17.09;32.71
7966;BME280;4028;43.272;26.932;2023-04-28T07:23:50;99551.00;;;16.77;32.84
7966;BME280;4028;43.272;26.932;2023-04-28T07:26:15;99552.28;;;17.21;33.31
7966;BME280;4028;43.272;26.932;2023-04-28T07:28:42;99548.03;;;17.57;32.39
7966;BME280;4028;43.272;26.932;2023-04-28T07:31:08;99556.03;;;17.11;31.91
7966;BME280;4028;43.272;26.932;2023-04-28T07:33:33;99550.38;;;17.29;31.97
7966;BME280;4028;43.272;26.932;2023-04-28T07:35:59;99533.72;;;17.19;32.14
7966;BME280;4028;43.272;26.932;2023-04-28T07:38:24;99536.13;;;17.83;33.18
7966;BME280;4028;43.272;26.932;2023-04-28T07:40:50;99537.06;;;17.90;32.01
7966;BME280;4028;43.272;26.932;2023-04-28T07:43:16;99544.91;;;17.00;33.06
7966;BME280;4028;43.272;26.932;2023-04-28T07:45:41;99548.50;;;16.76;34.04
7966;BME280;4028;43.272;26.932;2023-04-28T07:48:09;99535.78;;;16.38;33.06
7966;BME280;4028;43.272;26.932;2023-04-28T07:50:35;99537.34;;;16.72;33.09
7966;BME280;4028;43.272;26.932;2023-04-28T07:53:00;99534.19;;;17.31;32.82
7966;BME280;4028;43.272;26.932;2023-04-28T07:55:26;99550.31;;;16.83;33.46
7966;BME280;4028;43.272;26.932;2023-04-28T07:57:52;99549.44;;;16.91;33.35
7966;BME280;4028;43.272;26.932;2023-04-28T08:00:17;99547.78;;;17.21;32.67
7966;BME280;4028;43.272;26.932;2023-04-28T08:02:43;99536.81;;;17.08;33.06
7966;BME280;4028;43.272;26.932;2023-04-28T08:05:09;99528.91;;;16.83;33.66
7966;BME280;4028;43.272;26.932;2023-04-28T08:07:34;99534.25;;;16.83;33.92
7966;BME280;4028;43.272;26.932;2023-04-28T08:10:02;99516.09;;;17.56;33.02
7966;BME280;4028;43.272;26.932;2023-04-28T08:12:28;99534.28;;;17.60;32.99
7966;BME280;4028;43.272;26.932;2023-04-28T08:14:53;99548.13;;;17.64;32.90
7966;BME280;4028;43.272;26.932;2023-04-28T08:17:19;99543.66;;;16.79;32.05
7966;BME280;4028;43.272;26.932;2023-04-28T08:19:44;99531.31;;;16.70;32.39
7966;BME280;4028;43.272;26.932;2023-04-28T08:22:11;99528.00;;;17.30;32.37
7966;BME280;4028;43.272;26.932;2023-04-28T08:24:37;99515.38;;;17.39;32.53
7966;BME280;4028;43.272;26.932;2023-04-28T08:27:03;99525.41;;;16.83;33.78
7966;BME280;4028;43.272;26.932;2023-04-28T08:29:31;99529.59;;;16.85;32.93
7966;BME280;4028;43.272;26.932;2023-04-28T08:31:57;99530.41;;;16.94;33.19
7966;BME280;4028;43.272;26.932;2023-04-28T08:34:23;99515.78;;;17.97;32.60
7966;BME280;4028;43.272;26.932;2023-04-28T08:36:48;99519.38;;;18.18;32.06
7966;BME280;4028;43.272;26.932;2023-04-28T08:39:16;99515.69;;;18.34;30.39
7966;BME280;4028;43.272;26.932;2023-04-28T08:41:41;99496.66;;;18.74;31.00
7966;BME280;4028;43.272;26.932;2023-04-28T08:44:08;99513.50;;;18.23;31.33
7966;BME280;4028;43.272;26.932;2023-04-28T08:46:34;99517.69;;;17.65;31.99
7966;BME280;4028;43.272;26.932;2023-04-28T08:49:02;99525.94;;;17.09;33.63
7966;BME280;4028;43.272;26.932;2023-04-28T08:51:33;99518.50;;;16.57;34.36
7966;BME280;4028;43.272;26.932;2023-04-28T08:54:02;99523.19;;;17.26;33.67
7966;BME280;4028;43.272;26.932;2023-04-28T08:56:33;99520.97;;;17.75;31.80
7966;BME280;4028;43.272;26.932;2023-04-28T08:59:03;99517.03;;;17.40;31.41
7966;BME280;4028;43.272;26.932;2023-04-28T09:01:29;99517.19;;;16.53;33.50
7966;BME280;4028;43.272;26.932;2023-04-28T09:03:55;99518.34;;;15.71;34.13
7966;BME280;4028;43.272;26.932;2023-04-28T09:06:21;99512.28;;;15.20;35.25
7966;BME280;4028;43.272;26.932;2023-04-28T09:08:47;99502.97;;;15.40;35.10
7966;BME280;4028;43.272;26.932;2023-04-28T09:11:13;99517.53;;;15.78;34.90
7966;BME280;4028;43.272;26.932;2023-04-28T09:13:39;99514.84;;;15.70;34.86
7966;BME280;4028;43.272;26.932;2023-04-28T09:16:06;99517.31;;;15.55;35.70
7966;BME280;4028;43.272;26.932;2023-04-28T09:18:32;99509.69;;;15.52;35.95
7966;BME280;4028;43.272;26.932;2023-04-28T09:21:10;99513.00;;;15.95;35.19
7966;BME280;4028;43.272;26.932;2023-04-28T09:23:46;99494.50;;;16.49;34.53
7966;BME280;4028;43.272;26.932;2023-04-28T09:26:13;99501.53;;;16.42;34.71
7966;BME280;4028;43.272;26.932;2023-04-28T09:28:39;99504.88;;;16.36;35.13
7966;BME280;4028;43.272;26.932;2023-04-28T09:31:04;99507.81;;;16.02;34.89
7966;BME280;4028;43.272;26.932;2023-04-28T09:33:30;99505.34;;;15.84;34.49
7966;BME280;4028;43.272;26.932;2023-04-28T09:35:56;99508.88;;;15.68;34.43
7966;BME280;4028;43.272;26.932;2023-04-28T09:38:22;99500.00;;;15.84;34.54
7966;BME280;4028;43.272;26.932;2023-04-28T09:40:51;99501.03;;;15.83;34.18
7966;BME280;4028;43.272;26.932;2023-04-28T09:43:28;99498.84;;;15.54;35.55
7966;BME280;4028;43.272;26.932;2023-04-28T09:45:55;99494.66;;;15.35;34.98
7966;BME280;4028;43.272;26.932;2023-04-28T09:48:32;99501.66;;;15.44;36.21
7966;BME280;4028;43.272;26.932;2023-04-28T09:51:00;99498.16;;;15.76;36.51
7966;BME280;4028;43.272;26.932;2023-04-28T09:53:26;99473.97;;;15.94;35.79
7966;BME280;4028;43.272;26.932;2023-04-28T09:55:54;99492.19;;;15.82;35.32
7966;BME280;4028;43.272;26.932;2023-04-28T09:58:20;99487.16;;;15.88;36.55
7966;BME280;4028;43.272;26.932;2023-04-28T10:00:56;99481.22;;;16.25;34.80
7966;BME280;4028;43.272;26.932;2023-04-28T10:03:29;99467.56;;;16.28;35.74
7966;BME280;4028;43.272;26.932;2023-04-28T10:05:56;99457.56;;;16.53;34.81
7966;BME280;4028;43.272;26.932;2023-04-28T10:08:23;99469.09;;;16.14;35.31
7966;BME280;4028;43.272;26.932;2023-04-28T10:10:50;99475.31;;;16.37;36.38
7966;BME280;4028;43.272;26.932;2023-04-28T10:13:20;99471.34;;;16.73;36.21
7966;BME280;4028;43.272;26.932;2023-04-28T10:15:46;99475.31;;;16.46;34.60
7966;BME280;4028;43.272;26.932;2023-04-28T10:18:13;99469.66;;;15.85;34.78
7966;BME280;4028;43.272;26.932;2023-04-28T10:20:44;99481.69;;;15.65;35.33
7966;BME280;4028;43.272;26.932;2023-04-28T10:25:58;99465.00;;;15.30;35.09
7966;BME280;4028;43.272;26.932;2023-04-28T10:28:25;99477.66;;;15.28;34.56
7966;BME280;4028;43.272;26.932;2023-04-28T10:33:39;99475.00;;;15.28;34.86
7966;BME280;4028;43.272;26.932;2023-04-28T10:36:05;99472.31;;;15.03;35.35
7966;BME280;4028;43.272;26.932;2023-04-28T10:38:32;99457.59;;;14.75;35.15
7966;BME280;4028;43.272;26.932;2023-04-28T10:40:57;99468.94;;;14.93;35.87
7966;BME280;4028;43.272;26.932;2023-04-28T10:43:38;99465.47;;;14.85;36.05
7966;BME280;4028;43.272;26.932;2023-04-28T10:46:08;99473.44;;;14.85;36.56
7966;BME280;4028;43.272;26.932;2023-04-28T10:56:07;99472.84;;;15.48;35.58
7966;BME280;4028;43.272;26.932;2023-04-28T10:58:33;99471.19;;;15.47;35.39
7966;BME280;4028;43.272;26.932;2023-04-28T11:03:53;99449.16;;;15.77;33.84
7966;BME280;4028;43.272;26.932;2023-04-28T11:06:33;99470.19;;;15.56;33.37
7966;BME280;4028;43.272;26.932;2023-04-28T11:17:03;99475.16;;;15.59;35.86
7966;BME280;4028;43.272;26.932;2023-04-28T11:19:36;99478.19;;;15.56;35.08
7966;BME280;4028;43.272;26.932;2023-04-28T11:22:04;99477.66;;;15.52;34.82
7966;BME280;4028;43.272;26.932;2023-04-28T11:24:34;99478.84;;;15.42;34.35
7966;BME280;4028;43.272;26.932;2023-04-28T11:26:59;99449.69;;;15.32;35.02
7966;BME280;4028;43.272;26.932;2023-04-28T11:29:39;99463.97;;;15.55;34.41
7966;BME280;4028;43.272;26.932;2023-04-28T11:32:08;99456.84;;;15.48;34.57
7966;BME280;4028;43.272;26.932;2023-04-28T11:34:34;99460.47;;;15.55;35.49
7966;BME280;4028;43.272;26.932;2023-04-28T11:37:00;99420.31;;;15.48;36.09
7966;BME280;4028;43.272;26.932;2023-04-28T11:39:31;99456.00;;;15.39;35.34
7966;BME280;4028;43.272;26.932;2023-04-28T11:41:58;99468.84;;;15.52;35.83
7966;BME280;4028;43.272;26.932;2023-04-28T11:44:26;99455.00;;;15.73;35.72
7966;BME280;4028;43.272;26.932;2023-04-28T11:46:57;99470.69;;;15.51;34.51
7966;BME280;4028;43.272;26.932;2023-04-28T11:49:30;99462.50;;;15.45;34.89
7966;BME280;4028;43.272;26.932;2023-04-28T11:51:56;99458.34;;;15.42;34.96
7966;BME280;4028;43.272;26.932;2023-04-28T11:54:27;99469.16;;;15.08;35.50
7966;BME280;4028;43.272;26.932;2023-04-28T11:56:54;99466.16;;;15.11;36.07
7966;BME280;4028;43.272;26.932;2023-04-28T11:59:28;99470.81;;;15.09;35.36
7966;BME280;4028;43.272;26.932;2023-04-28T12:01:57;99452.34;;;15.32;35.60
7966;BME280;4028;43.272;26.932;2023-04-28T12:04:34;99463.00;;;15.48;35.38
7966;BME280;4028;43.272;26.932;2023-04-28T12:07:14;99450.84;;;15.38;35.03
7966;BME280;4028;43.272;26.932;2023-04-28T12:09:45;99460.81;;;15.44;34.99
7966;BME280;4028;43.272;26.932;2023-04-28T12:12:26;99455.66;;;15.34;35.73
7966;BME280;4028;43.272;26.932;2023-04-28T12:14:53;99451.50;;;15.15;35.90
7966;BME280;4028;43.272;26.932;2023-04-28T12:17:32;99459.19;;;15.26;36.67
7966;BME280;4028;43.272;26.932;2023-04-28T12:20:04;99456.66;;;15.25;36.30
7966;BME280;4028;43.272;26.932;2023-04-28T12:22:42;99452.31;;;15.07;35.90
7966;BME280;4028;43.272;26.932;2023-04-28T12:25:10;99410.00;;;14.96;36.20
7966;BME280;4028;43.272;26.932;2023-04-28T12:27:37;99445.34;;;15.47;36.02
7966;BME280;4028;43.272;26.932;2023-04-28T12:32:40;99449.00;;;15.79;35.54
7966;BME280;4028;43.272;26.932;2023-04-28T12:35:08;99446.31;;;15.71;34.85
7966;BME280;4028;43.272;26.932;2023-04-28T12:37:34;99437.00;;;15.42;34.73
7966;BME280;4028;43.272;26.932;2023-04-28T12:40:00;99435.53;;;15.15;35.52
7966;BME280;4028;43.272;26.932;2023-04-28T12:42:28;99425.69;;;15.32;35.89
7966;BME280;4028;43.272;26.932;2023-04-28T12:44:54;99400.38;;;15.12;35.28
7966;BME280;4028;43.272;26.932;2023-04-28T12:47:19;99436.00;;;15.19;35.89
7966;BME280;4028;43.272;26.932;2023-04-28T12:49:45;99387.03;;;15.12;35.40
7966;BME280;4028;43.272;26.932;2023-04-28T12:52:12;99425.53;;;15.25;35.91
7966;BME280;4028;43.272;26.932;2023-04-28T12:54:38;99427.53;;;15.31;36.77
7966;BME280;4028;43.272;26.932;2023-04-28T12:57:04;99432.84;;;15.31;36.55
7966;BME280;4028;43.272;26.932;2023-04-28T12:59:30;99437.50;;;15.13;36.04
7966;BME280;4028;43.272;26.932;2023-04-28T13:01:55;99438.84;;;15.01;36.76
7966;BME280;4028;43.272;26.932;2023-04-28T13:04:21;99428.03;;;15.11;36.36
7966;BME280;4028;43.272;26.932;2023-04-28T13:06:47;99421.34;;;15.15;37.00
7966;BME280;4028;43.272;26.932;2023-04-28T13:09:13;99416.88;;;15.15;36.81
7966;BME280;4028;43.272;26.932;2023-04-28T13:11:40;99415.53;;;15.11;36.93
7966;BME280;4028;43.272;26.932;2023-04-28T13:14:06;99423.03;;;15.16;36.32
7966;BME280;4028;43.272;26.932;2023-04-28T13:16:31;99403.34;;;15.08;37.40
7966;BME280;4028;43.272;26.932;2023-04-28T13:18:57;99402.34;;;15.09;36.26
7966;BME280;4028;43.272;26.932;2023-04-28T13:21:24;99415.66;;;15.09;36.71
7966;BME280;4028;43.272;26.932;2023-04-28T13:23:54;99402.84;;;15.13;36.24
7966;BME280;4028;43.272;26.932;2023-04-28T13:26:20;99416.19;;;15.21;36.28
7966;BME280;4028;43.272;26.932;2023-04-28T13:28:47;99406.34;;;15.14;36.64
7966;BME280;4028;43.272;26.932;2023-04-28T13:31:13;99405.34;;;15.23;37.15
7966;BME280;4028;43.272;26.932;2023-04-28T13:33:39;99371.88;;;15.04;37.47
7966;BME280;4028;43.272;26.932;2023-04-28T13:36:05;99405.53;;;15.13;37.09